Conisbrough, United Kingdom
Current Conditions -  °F | °C
As of 11:20 PM on Tuesday 25 Nov 2014 (Local Time) from EGCN Reporting Station
Broken Clouds Broken Clouds  
Wind Chill:   Ceiling: 2000
Heat Index:   Visibility: 4mi
Dew Point:   Wind: 7mph
Humidity: 93%   Direction: 340°NNW
Pressure: 30.12"   Gusts: NA
Location:  53.48°N, 1.23°W
Report Text: EGCN 252320Z 34006KT 7000 BKN020 BKN027 06/05 Q1020
Loading
Personal Weather Stations






























Interactive Weather Map New forecast layout! Learn more

10-Day Weather Forecast

Advertisements
Track Severe Weather on mobile